createdAt,value
2022-08-28T00:00:12.203Z,9.711573
2022-08-28T00:01:12.175Z,9.711460
2022-08-28T00:02:12.173Z,9.711588
2022-08-28T00:03:12.188Z,9.711543
2022-08-28T00:04:12.179Z,9.711442
2022-08-28T00:05:12.144Z,9.711608
2022-08-28T00:06:12.131Z,9.711733
2022-08-28T00:07:12.136Z,9.711971
2022-08-28T00:08:12.293Z,9.711890
2022-08-28T00:09:12.116Z,9.711791
2022-08-28T00:10:12.111Z,9.711728
2022-08-28T00:11:12.100Z,9.711817
2022-08-28T00:12:12.085Z,9.711740
2022-08-28T00:13:12.089Z,9.711780
2022-08-28T00:14:12.067Z,9.712271
2022-08-28T00:15:12.936Z,9.712173
2022-08-28T00:16:12.117Z,9.711894
2022-08-28T00:17:12.050Z,9.711711
2022-08-28T00:18:12.229Z,9.711575
2022-08-28T00:19:12.030Z,9.711404
2022-08-28T00:20:12.023Z,9.711882
2022-08-28T00:21:12.011Z,9.712230
2022-08-28T00:22:12.009Z,9.712357
2022-08-28T00:23:12.016Z,9.712297
2022-08-28T00:24:11.998Z,9.712430
2022-08-28T00:25:11.992Z,9.711954
2022-08-28T00:26:11.980Z,9.711884
2022-08-28T00:27:11.969Z,9.711817
2022-08-28T00:28:23.479Z,9.711760
2022-08-28T00:29:12.968Z,9.711790
2022-08-28T00:30:11.950Z,9.711799
2022-08-28T00:39:02.290Z,9.711646
2022-08-28T00:40:02.434Z,9.711541
2022-08-28T00:41:03.759Z,9.711735
2022-08-28T00:42:02.270Z,9.711704
2022-08-28T00:43:02.264Z,9.711890
2022-08-28T00:44:02.257Z,9.712267
2022-08-28T00:45:02.233Z,9.712420
2022-08-28T00:46:02.254Z,9.712197
2022-08-28T00:47:02.227Z,9.712197
2022-08-28T00:48:02.204Z,9.711656
2022-08-28T00:49:02.218Z,9.711582
2022-08-28T00:50:02.188Z,9.711930
2022-08-28T00:51:02.193Z,9.711755
2022-08-28T00:52:02.171Z,9.711657
2022-08-28T00:53:02.164Z,9.711644
2022-08-28T00:54:06.837Z,9.711524
2022-08-28T00:55:04.152Z,9.711649
2022-08-28T00:56:02.148Z,9.711653
2022-08-28T00:57:03.147Z,9.711703
2022-08-28T00:58:02.130Z,9.711640
2022-08-28T00:59:02.122Z,9.711707
2022-08-28T01:00:02.104Z,9.711587
2022-08-28T01:01:02.111Z,9.711669
2022-08-28T01:02:02.190Z,9.711702
2022-08-28T01:03:02.166Z,9.711615
2022-08-28T01:04:02.088Z,9.711637
2022-08-28T01:05:02.076Z,9.711679
2022-08-28T01:06:02.063Z,9.711623
2022-08-28T01:07:02.076Z,9.711719
2022-08-28T01:08:02.047Z,9.711690
2022-08-28T01:09:02.050Z,9.711659
2022-08-28T01:10:02.026Z,9.711617
2022-08-28T01:11:02.019Z,9.711658
2022-08-28T01:12:02.089Z,9.711662
2022-08-28T01:13:02.007Z,9.711647
2022-08-28T01:14:03.006Z,9.711598
2022-08-28T01:15:02.992Z,9.711638
2022-08-28T01:16:02.078Z,9.711638
2022-08-28T01:17:01.979Z,9.711636
2022-08-28T01:18:07.378Z,9.711671
2022-08-28T01:19:04.921Z,9.711570
2022-08-28T01:20:02.955Z,9.711552
2022-08-28T01:21:01.947Z,9.711484
2022-08-28T01:22:01.947Z,9.711533
2022-08-28T01:23:01.935Z,9.711601
2022-08-28T01:24:01.913Z,9.711702
2022-08-28T01:25:02.165Z,9.711836
2022-08-28T01:26:01.901Z,9.711781
2022-08-28T01:27:02.944Z,9.711788
2022-08-28T01:28:01.898Z,9.711712
2022-08-28T01:29:01.879Z,9.711853
2022-08-28T01:30:01.885Z,9.711904
2022-08-28T01:31:01.898Z,9.711937
2022-08-28T01:32:01.844Z,9.711701
2022-08-28T01:33:01.848Z,9.711790
2022-08-28T01:34:01.827Z,9.711742
2022-08-28T01:35:01.821Z,9.711792
2022-08-28T01:36:01.816Z,9.711667
2022-08-28T01:37:03.387Z,9.711720
2022-08-28T01:38:01.804Z,9.711654
2022-08-28T01:39:01.808Z,9.711873
2022-08-28T01:40:01.826Z,9.711930
2022-08-28T01:41:01.775Z,9.711711
2022-08-28T01:42:01.767Z,9.711738
2022-08-28T01:43:01.771Z,9.711711
2022-08-28T01:44:01.752Z,9.711842
2022-08-28T01:45:01.741Z,9.711813
2022-08-28T01:46:01.830Z,9.711950
2022-08-28T01:47:02.724Z,9.711818
2022-08-28T01:48:01.730Z,9.711781
2022-08-28T01:49:01.710Z,9.711665
2022-08-28T01:50:01.702Z,9.711751
2022-08-28T01:51:01.693Z,9.711782
2022-08-28T01:52:01.687Z,9.711706
2022-08-28T01:53:01.690Z,9.711529
2022-08-28T01:54:01.681Z,9.711512
2022-08-28T01:55:01.662Z,9.711644
2022-08-28T01:56:01.678Z,9.711958
2022-08-28T01:57:01.654Z,9.712158
2022-08-28T01:58:01.633Z,9.712543
2022-08-28T01:59:01.636Z,9.712987
2022-08-28T02:00:01.654Z,9.712591
2022-08-28T02:14:09.466Z,9.711494
2022-08-28T02:15:10.448Z,9.711542
2022-08-28T02:16:09.482Z,9.711630
2022-08-28T02:17:09.431Z,9.711549
2022-08-28T02:18:09.483Z,9.711402
2022-08-28T02:19:09.426Z,9.711501
2022-08-28T02:20:09.413Z,9.711264
2022-08-28T02:21:09.399Z,9.711407
2022-08-28T02:22:09.421Z,9.711902
2022-08-28T02:23:09.408Z,9.712051
2022-08-28T02:24:09.397Z,9.712117
2022-08-28T02:25:09.373Z,9.712153
2022-08-28T02:26:09.364Z,9.712098
2022-08-28T02:27:09.358Z,9.711970
2022-08-28T02:28:09.502Z,9.712070
2022-08-28T02:29:09.347Z,9.712165
2022-08-28T02:30:09.351Z,9.711856
2022-08-28T02:31:09.462Z,9.711957
2022-08-28T02:32:09.317Z,9.712047
2022-08-28T02:33:09.314Z,9.712285
2022-08-28T02:34:09.310Z,9.711652
2022-08-28T02:35:10.108Z,9.711620
2022-08-28T02:36:09.285Z,9.711633
2022-08-28T02:37:09.281Z,9.711656
2022-08-28T02:38:09.336Z,9.711626
2022-08-28T02:39:09.269Z,9.711649
2022-08-28T02:40:09.303Z,9.711652
2022-08-28T02:41:09.257Z,9.711619
2022-08-28T02:42:09.245Z,9.711606
2022-08-28T02:43:09.236Z,9.711585
2022-08-28T02:44:09.235Z,9.711572
2022-08-28T02:45:09.224Z,9.711616
2022-08-28T02:46:09.973Z,9.711674
2022-08-28T02:47:09.204Z,9.711659
2022-08-28T02:48:15.568Z,9.711696
2022-08-28T02:49:10.186Z,9.711674
2022-08-28T02:50:09.189Z,9.711625
2022-08-28T02:51:09.181Z,9.711645
2022-08-28T02:52:09.166Z,9.711657
2022-08-28T02:53:09.163Z,9.711658
2022-08-28T02:54:09.166Z,9.711647
2022-08-28T02:55:09.150Z,9.711674
2022-08-28T02:56:09.134Z,9.711688
2022-08-28T02:57:09.122Z,9.711679
2022-08-28T02:58:09.161Z,9.711675
2022-08-28T02:59:09.112Z,9.711687
2022-08-28T03:00:09.101Z,9.711637
2022-08-28T03:01:09.179Z,9.711636
2022-08-28T03:02:09.142Z,9.711622
2022-08-28T03:03:10.076Z,9.711608
2022-08-28T03:04:09.064Z,9.711569
2022-08-28T03:05:09.067Z,9.711608
2022-08-28T03:06:09.053Z,9.711740
2022-08-28T03:07:09.066Z,9.711580
2022-08-28T03:08:09.152Z,9.711637
2022-08-28T03:09:09.027Z,9.711571
2022-08-28T03:10:09.026Z,9.711555
2022-08-28T03:11:09.009Z,9.711483
2022-08-28T03:12:09.010Z,9.711697
2022-08-28T03:13:08.995Z,9.711682
2022-08-28T03:14:08.991Z,9.711579
2022-08-28T03:15:08.981Z,9.711647
2022-08-28T03:16:08.989Z,9.711663
2022-08-28T03:17:08.964Z,9.711627
2022-08-28T03:18:11.206Z,9.711662
2022-08-28T03:19:08.951Z,9.711615
2022-08-28T03:20:08.945Z,9.711755
2022-08-28T03:21:08.961Z,9.711711
2022-08-28T03:22:08.927Z,9.711548
2022-08-28T03:23:08.930Z,9.711688
2022-08-28T03:24:09.914Z,9.711400
2022-08-28T03:25:09.901Z,9.711638
2022-08-28T03:26:08.903Z,9.711624
2022-08-28T03:27:08.887Z,9.711578
2022-08-28T03:28:08.913Z,9.711698
2022-08-28T03:29:08.882Z,9.711693
2022-08-28T03:30:08.868Z,9.711559
2022-08-28T03:31:08.897Z,9.711623
2022-08-28T03:32:08.855Z,9.712212
2022-08-28T03:33:08.837Z,9.711914
2022-08-28T03:34:08.838Z,9.711520
2022-08-28T03:35:08.823Z,9.711208
2022-08-28T03:36:08.825Z,9.710871
2022-08-28T03:37:08.808Z,9.711074
2022-08-28T03:38:08.803Z,9.711585
2022-08-28T03:39:08.802Z,9.711832
2022-08-28T03:40:08.836Z,9.711998
2022-08-28T03:41:08.782Z,9.711866
2022-08-28T03:42:08.767Z,9.712029
2022-08-28T03:43:09.366Z,9.711970
2022-08-28T03:44:08.754Z,9.712140
2022-08-28T03:45:08.742Z,9.712266
2022-08-28T03:46:08.839Z,9.711957
2022-08-28T03:47:09.388Z,9.711592
2022-08-28T03:48:08.850Z,9.711566
2022-08-28T03:49:08.717Z,9.711473
2022-08-28T03:50:08.714Z,9.711978
2022-08-28T03:51:08.712Z,9.712046
2022-08-28T03:52:08.698Z,9.712150
2022-08-28T03:53:08.683Z,9.712104
2022-08-28T03:54:08.684Z,9.711703
2022-08-28T03:55:08.684Z,9.711930
2022-08-28T03:56:08.659Z,9.711827
2022-08-28T03:57:08.663Z,9.711656
2022-08-28T03:58:08.702Z,9.711926
2022-08-28T03:59:08.642Z,9.712080
2022-08-28T04:00:08.624Z,9.712292
2022-08-28T04:01:08.684Z,9.712062
2022-08-28T04:02:08.619Z,9.712138
2022-08-28T04:03:08.653Z,9.712249
2022-08-28T04:04:08.605Z,9.712201
2022-08-28T04:05:08.592Z,9.712123
2022-08-28T04:06:08.617Z,9.711604
2022-08-28T04:07:08.572Z,9.711777
2022-08-28T04:08:08.577Z,9.711747
2022-08-28T04:09:08.566Z,9.711498
2022-08-28T04:10:08.552Z,9.711409
2022-08-28T04:11:08.560Z,9.711517
2022-08-28T04:12:08.535Z,9.711820
2022-08-28T04:13:08.543Z,9.711830
2022-08-28T04:14:08.519Z,9.711825
2022-08-28T04:15:08.524Z,9.712439
2022-08-28T04:16:08.563Z,9.712181
2022-08-28T04:17:08.538Z,9.712433
2022-08-28T04:18:08.492Z,9.712464
2022-08-28T04:19:08.493Z,9.712125
2022-08-28T04:20:08.470Z,9.712365
2022-08-28T04:21:08.478Z,9.712287
2022-08-28T04:22:08.481Z,9.711946
2022-08-28T04:23:08.958Z,9.711585
2022-08-28T04:24:09.790Z,9.711496
2022-08-28T04:25:09.437Z,9.711436
2022-08-28T04:26:08.437Z,9.711491
2022-08-28T04:27:08.424Z,9.711560
2022-08-28T04:28:08.534Z,9.711644
2022-08-28T04:29:08.422Z,9.711808
2022-08-28T04:30:09.930Z,9.711898
2022-08-28T04:31:08.405Z,9.711346
2022-08-28T04:32:08.502Z,9.711456
2022-08-28T04:33:08.378Z,9.711675
2022-08-28T04:34:08.363Z,9.711373
2022-08-28T04:35:08.368Z,9.711500
2022-08-28T04:36:08.360Z,9.711824
2022-08-28T04:37:08.360Z,9.711902
2022-08-28T04:38:08.369Z,9.711792
2022-08-28T04:39:08.314Z,9.711853
2022-08-28T04:40:09.344Z,9.711815
2022-08-28T04:41:08.970Z,9.711561
2022-08-28T04:42:08.309Z,9.711698
2022-08-28T04:43:08.297Z,9.711563
2022-08-28T04:44:08.291Z,9.711649
2022-08-28T04:45:08.272Z,9.711785
2022-08-28T04:46:08.287Z,9.711916
2022-08-28T04:47:08.257Z,9.711510
2022-08-28T04:48:10.513Z,9.711567
2022-08-28T04:49:08.250Z,9.711408
2022-08-28T04:50:08.236Z,9.711637
2022-08-28T04:51:08.225Z,9.711518
2022-08-28T04:52:08.217Z,9.711447
2022-08-28T04:53:08.214Z,9.711771
2022-08-28T04:54:08.215Z,9.711784
2022-08-28T04:55:08.201Z,9.711723
2022-08-28T04:56:08.188Z,9.711719
2022-08-28T04:57:08.188Z,9.711701
2022-08-28T04:58:08.346Z,9.711547
2022-08-28T04:59:08.170Z,9.711424
2022-08-28T05:00:08.153Z,9.711484
2022-08-28T05:01:08.239Z,9.711445
2022-08-28T05:02:08.203Z,9.711516
2022-08-28T05:03:08.150Z,9.711550
2022-08-28T05:04:08.119Z,9.711552
2022-08-28T05:05:08.124Z,9.711785
2022-08-28T05:06:08.107Z,9.711763
2022-08-28T05:07:08.106Z,9.711884
2022-08-28T05:08:08.094Z,9.711806
2022-08-28T05:09:08.079Z,9.711860
2022-08-28T05:10:08.092Z,9.711681
2022-08-28T05:11:08.077Z,9.711625
2022-08-28T05:12:08.067Z,9.711642
2022-08-28T05:13:08.053Z,9.711411
2022-08-28T05:14:11.439Z,9.711533
2022-08-28T05:15:09.041Z,9.711616
2022-08-28T05:16:08.115Z,9.711542
2022-08-28T05:17:08.026Z,9.711528
2022-08-28T05:18:08.026Z,9.711579
2022-08-28T05:19:08.003Z,9.711618
2022-08-28T05:20:08.003Z,9.711551
2022-08-28T05:21:11.576Z,9.711471
2022-08-28T05:22:09.981Z,9.711532
2022-08-28T05:23:07.970Z,9.711543
2022-08-28T05:24:07.964Z,9.711729
2022-08-28T05:25:07.958Z,9.711737
2022-08-28T05:26:07.991Z,9.711937
2022-08-28T05:27:07.947Z,9.711782
2022-08-28T05:28:12.012Z,9.711837
2022-08-28T05:29:07.929Z,9.711967
2022-08-28T05:30:08.483Z,9.711734
2022-08-28T05:31:07.963Z,9.711574
2022-08-28T05:32:07.918Z,9.711614
2022-08-28T05:33:07.893Z,9.711582
2022-08-28T05:34:07.899Z,9.711708
2022-08-28T05:35:07.878Z,9.711679
2022-08-28T05:36:07.883Z,9.711635
2022-08-28T05:37:07.861Z,9.711578
2022-08-28T05:38:08.405Z,9.711548
2022-08-28T05:39:07.857Z,9.711572
2022-08-28T05:40:07.878Z,9.711586
2022-08-28T05:41:07.834Z,9.711605
2022-08-28T05:42:07.860Z,9.711637
2022-08-28T05:43:07.829Z,9.711751
2022-08-28T05:44:07.823Z,9.711711
2022-08-28T05:45:07.800Z,9.711660
2022-08-28T05:46:07.854Z,9.711707
2022-08-28T05:47:07.794Z,9.711719
2022-08-28T05:48:07.784Z,9.711652
2022-08-28T05:49:09.989Z,9.711662
2022-08-28T05:50:08.772Z,9.711650
2022-08-28T05:51:07.753Z,9.711685
2022-08-28T05:52:08.486Z,9.711630
2022-08-28T05:53:07.738Z,9.711673
2022-08-28T05:54:07.746Z,9.711663
2022-08-28T05:55:07.732Z,9.711713
2022-08-28T05:56:07.721Z,9.711695
2022-08-28T05:57:07.727Z,9.711663
2022-08-28T05:58:08.716Z,9.711707
2022-08-28T05:59:07.707Z,9.711692
2022-08-28T06:00:07.690Z,9.711650
2022-08-28T06:01:07.690Z,9.711646
2022-08-28T06:02:07.782Z,9.711681
2022-08-28T06:03:07.662Z,9.711699
2022-08-28T06:04:07.745Z,9.711701
2022-08-28T06:05:07.654Z,9.711723
2022-08-28T06:06:07.664Z,9.711619
2022-08-28T06:07:07.633Z,9.711598
2022-08-28T06:08:07.633Z,9.711598
2022-08-28T06:09:07.625Z,9.711603
2022-08-28T06:10:07.614Z,9.711611
2022-08-28T06:11:07.605Z,9.711634
2022-08-28T06:12:07.612Z,9.711679
2022-08-28T06:13:07.592Z,9.711660
2022-08-28T06:14:07.581Z,9.711554
2022-08-28T06:15:07.568Z,9.711739
2022-08-28T06:16:07.591Z,9.711699
2022-08-28T06:17:08.570Z,9.711596
2022-08-28T06:18:07.562Z,9.711560
2022-08-28T06:19:07.544Z,9.711763
2022-08-28T06:20:07.537Z,9.711797
2022-08-28T06:21:07.525Z,9.711768
2022-08-28T06:22:07.826Z,9.711864
2022-08-28T06:23:07.518Z,9.711964
2022-08-28T06:24:07.497Z,9.711930
2022-08-28T06:25:08.098Z,9.711942
2022-08-28T06:26:08.483Z,9.712011
2022-08-28T06:27:07.475Z,9.711729
2022-08-28T06:28:07.472Z,9.711586
2022-08-28T06:29:07.460Z,9.711639
2022-08-28T06:30:07.464Z,9.711606
2022-08-28T06:31:23.705Z,9.711511
2022-08-28T06:32:09.522Z,9.711394
2022-08-28T06:33:07.431Z,9.711348
2022-08-28T06:34:07.434Z,9.711292
2022-08-28T06:35:07.427Z,9.711523
2022-08-28T06:36:07.415Z,9.711638
2022-08-28T06:37:07.412Z,9.711658
2022-08-28T06:38:07.413Z,9.711760
2022-08-28T06:39:07.389Z,9.711669
2022-08-28T06:40:07.420Z,9.711576
2022-08-28T06:41:07.368Z,9.711514
2022-08-28T06:42:07.368Z,9.711637
2022-08-28T06:43:07.355Z,9.711703
2022-08-28T06:44:07.354Z,9.711664
2022-08-28T06:45:07.343Z,9.711746
2022-08-28T06:46:07.407Z,9.711692
2022-08-28T06:47:07.331Z,9.711640
2022-08-28T06:48:07.316Z,9.711676
2022-08-28T06:49:07.318Z,9.711724
2022-08-28T06:50:07.316Z,9.711689
2022-08-28T06:51:07.297Z,9.711636
2022-08-28T06:52:07.285Z,9.711669
2022-08-28T06:53:07.276Z,9.711710
2022-08-28T06:54:07.275Z,9.711685
2022-08-28T06:55:07.253Z,9.711716
2022-08-28T06:56:07.255Z,9.711768
2022-08-28T06:57:07.934Z,9.711781
2022-08-28T06:58:07.297Z,9.711584
2022-08-28T06:59:07.226Z,9.711614
2022-08-28T07:00:07.218Z,9.711625
2022-08-28T07:01:08.046Z,9.711640
2022-08-28T07:02:07.400Z,9.711754
2022-08-28T07:03:07.208Z,9.711712
2022-08-28T07:04:07.190Z,9.711675
2022-08-28T07:05:07.211Z,9.711714
2022-08-28T07:06:07.181Z,9.711698
2022-08-28T07:07:07.179Z,9.711664
2022-08-28T07:08:07.165Z,9.711678
2022-08-28T07:09:07.160Z,9.711664
2022-08-28T07:10:07.159Z,9.711663
2022-08-28T07:11:07.144Z,9.711713
2022-08-28T07:12:07.130Z,9.711720
2022-08-28T07:13:07.116Z,9.711714
2022-08-28T07:14:07.107Z,9.711708
2022-08-28T07:15:07.111Z,9.711745
2022-08-28T07:16:07.136Z,9.711718
2022-08-28T07:17:07.106Z,9.711703
2022-08-28T07:18:07.093Z,9.711686
2022-08-28T07:19:07.070Z,9.711707
2022-08-28T07:20:07.064Z,9.711674
2022-08-28T07:21:11.665Z,9.711688
2022-08-28T07:22:09.044Z,9.711704
2022-08-28T07:23:07.036Z,9.711634
2022-08-28T07:24:07.031Z,9.711723
2022-08-28T07:25:07.030Z,9.711734
2022-08-28T07:26:07.523Z,9.711715
2022-08-28T07:27:07.008Z,9.711734
2022-08-28T07:28:07.000Z,9.711761
2022-08-28T07:29:10.206Z,9.711705
2022-08-28T07:30:07.557Z,9.711659
2022-08-28T07:31:07.040Z,9.711606
2022-08-28T07:32:06.980Z,9.711548
2022-08-28T07:33:06.960Z,9.711632
2022-08-28T07:34:06.958Z,9.711749
2022-08-28T07:35:06.965Z,9.711793
2022-08-28T07:36:06.974Z,9.711636
2022-08-28T07:37:06.938Z,9.711515
2022-08-28T07:38:06.944Z,9.711717
2022-08-28T07:39:06.910Z,9.711631
2022-08-28T07:40:06.972Z,9.711526
2022-08-28T07:41:07.526Z,9.711639
2022-08-28T07:42:06.906Z,9.711504
2022-08-28T07:43:06.886Z,9.711615
2022-08-28T07:44:06.882Z,9.711720
2022-08-28T07:45:06.872Z,9.711722
2022-08-28T07:46:06.945Z,9.711722
2022-08-28T07:47:06.861Z,9.711722
2022-08-28T07:48:10.823Z,9.711722
2022-08-28T07:49:07.840Z,9.711722
2022-08-28T07:50:06.822Z,9.711722
2022-08-28T07:51:06.829Z,9.711722
2022-08-28T07:52:06.808Z,9.711722
2022-08-28T07:53:06.798Z,9.711722
2022-08-28T07:54:06.800Z,9.711722
2022-08-28T07:55:06.783Z,9.712729
2022-08-28T07:56:06.787Z,9.712141
2022-08-28T07:57:06.768Z,9.712012
2022-08-28T07:58:06.758Z,9.711708
2022-08-28T07:59:06.753Z,9.711773
2022-08-28T08:00:06.740Z,9.711657
2022-08-28T08:01:06.805Z,9.711731
2022-08-28T08:02:06.738Z,9.711756
2022-08-28T08:03:06.797Z,9.711721
2022-08-28T08:04:06.716Z,9.711683
2022-08-28T08:05:06.698Z,9.711683
2022-08-28T08:06:06.694Z,9.711685
2022-08-28T08:07:06.681Z,9.711708
2022-08-28T08:08:07.677Z,9.711709
2022-08-28T08:09:06.673Z,9.711727
2022-08-28T08:10:06.663Z,9.711565
2022-08-28T08:11:06.646Z,9.711553
2022-08-28T08:12:06.638Z,9.711596
2022-08-28T08:13:06.645Z,9.711669
2022-08-28T08:14:06.618Z,9.711690
2022-08-28T08:15:06.620Z,9.711691
2022-08-28T08:16:06.740Z,9.711652
2022-08-28T08:17:07.536Z,9.711558
2022-08-28T08:18:06.633Z,9.711611
2022-08-28T08:19:06.583Z,9.711660
2022-08-28T08:20:06.575Z,9.711735
2022-08-28T08:21:06.572Z,9.711742
2022-08-28T08:22:06.561Z,9.711782
2022-08-28T08:23:06.558Z,9.711679
2022-08-28T08:24:06.553Z,9.711745
2022-08-28T08:25:06.556Z,9.711746
2022-08-28T08:26:06.538Z,9.711829
2022-08-28T08:27:06.530Z,9.711719
2022-08-28T08:28:06.591Z,9.711663
2022-08-28T08:29:06.504Z,9.711633
2022-08-28T08:30:06.505Z,9.711615
2022-08-28T08:31:06.574Z,9.711725
2022-08-28T08:32:06.566Z,9.711751
2022-08-28T08:33:06.474Z,9.711742
2022-08-28T08:34:06.473Z,9.711726
2022-08-28T08:35:06.469Z,9.711847
2022-08-28T08:36:06.444Z,9.711693
2022-08-28T08:37:06.463Z,9.711800
2022-08-28T08:38:07.051Z,9.711830
2022-08-28T08:39:09.543Z,9.711835
2022-08-28T08:40:10.435Z,9.711781
2022-08-28T08:41:07.413Z,9.711704
2022-08-28T08:42:06.417Z,9.711706
2022-08-28T08:43:06.392Z,9.711690
2022-08-28T08:44:06.396Z,9.711664
2022-08-28T08:45:06.372Z,9.711665
2022-08-28T08:46:07.438Z,9.711694
2022-08-28T08:47:09.569Z,9.711791
2022-08-28T08:48:07.365Z,9.711718
2022-08-28T08:49:06.353Z,9.711629
2022-08-28T08:50:06.348Z,9.711561
2022-08-28T08:51:06.331Z,9.711642
2022-08-28T08:52:06.327Z,9.711798
2022-08-28T08:53:06.346Z,9.711720
2022-08-28T08:54:06.309Z,9.711581
2022-08-28T08:55:06.327Z,9.711863
2022-08-28T08:56:06.297Z,9.711846
2022-08-28T08:57:06.286Z,9.711658
2022-08-28T08:58:06.348Z,9.711512
2022-08-28T08:59:06.275Z,9.711607
2022-08-28T09:00:06.263Z,9.711454
2022-08-28T09:01:06.322Z,9.711428
2022-08-28T09:02:06.266Z,9.711559
2022-08-28T09:03:06.265Z,9.711740
2022-08-28T09:04:06.231Z,9.711657
2022-08-28T09:05:06.224Z,9.711620
2022-08-28T09:06:06.214Z,9.711264
2022-08-28T09:07:06.217Z,9.711481
2022-08-28T09:08:06.304Z,9.711563
2022-08-28T09:09:39.009Z,9.711481
2022-08-28T09:10:06.187Z,9.711347
2022-08-28T09:24:14.047Z,9.711550
2022-08-28T09:25:14.034Z,9.711537
2022-08-28T09:26:14.026Z,9.711479
2022-08-28T09:27:14.534Z,9.711483
2022-08-28T09:28:15.014Z,9.711480
2022-08-28T09:29:14.036Z,9.711502
2022-08-28T09:30:13.999Z,9.711470
2022-08-28T09:31:14.041Z,9.711535
2022-08-28T09:32:14.026Z,9.711523
2022-08-28T09:33:13.966Z,9.711508
2022-08-28T09:34:13.961Z,9.711664
2022-08-28T09:35:13.959Z,9.711550
2022-08-28T09:36:13.943Z,9.711575
2022-08-28T09:37:14.073Z,9.711455
2022-08-28T09:38:14.080Z,9.711533
2022-08-28T09:39:13.921Z,9.711622
2022-08-28T09:40:13.966Z,9.711739
2022-08-28T09:41:13.907Z,9.711477
2022-08-28T09:42:13.898Z,9.711646
2022-08-28T09:43:13.891Z,9.711626
2022-08-28T09:44:13.874Z,9.711737
2022-08-28T09:45:13.871Z,9.711740
2022-08-28T09:46:13.898Z,9.711738
2022-08-28T09:47:13.864Z,9.711587
2022-08-28T09:48:13.981Z,9.711708
2022-08-28T09:49:13.838Z,9.711709
2022-08-28T09:50:13.840Z,9.711671
2022-08-28T09:51:13.843Z,9.711692
2022-08-28T09:52:13.818Z,9.711698
2022-08-28T09:53:13.807Z,9.711741
2022-08-28T09:54:13.796Z,9.711715
2022-08-28T09:55:13.800Z,9.711743
2022-08-28T09:56:13.784Z,9.711768
2022-08-28T09:57:13.781Z,9.711674
2022-08-28T09:58:14.082Z,9.711791
2022-08-28T09:59:13.762Z,9.711672
2022-08-28T10:00:13.757Z,9.711408
2022-08-28T10:01:13.811Z,9.711680
2022-08-28T10:02:13.758Z,9.711686
2022-08-28T10:03:13.726Z,9.711669
2022-08-28T10:04:13.812Z,9.711648
2022-08-28T10:05:13.710Z,9.711806
2022-08-28T10:06:13.706Z,9.711828
2022-08-28T10:07:13.705Z,9.711810
2022-08-28T10:08:13.906Z,9.711839
2022-08-28T10:09:13.686Z,9.711611
2022-08-28T10:10:13.667Z,9.711899
2022-08-28T10:11:13.668Z,9.711904
2022-08-28T10:12:13.650Z,9.711739
2022-08-28T10:13:13.655Z,9.711424
2022-08-28T10:14:13.639Z,9.711494
2022-08-28T10:15:13.633Z,9.711798
2022-08-28T10:16:13.655Z,9.711847
2022-08-28T10:17:13.626Z,9.711752
2022-08-28T10:18:13.713Z,9.711831
2022-08-28T10:19:13.606Z,9.711860
2022-08-28T10:20:13.591Z,9.711760
2022-08-28T10:21:13.584Z,9.711507
2022-08-28T10:22:13.574Z,9.711726
2022-08-28T10:23:17.537Z,9.711980
2022-08-28T10:24:14.564Z,9.711885
2022-08-28T10:25:13.565Z,9.711787
2022-08-28T10:26:13.546Z,9.711772
2022-08-28T10:27:13.541Z,9.711773
2022-08-28T10:28:13.651Z,9.711602
2022-08-28T10:29:13.518Z,9.711555
2022-08-28T10:30:13.665Z,9.711568
2022-08-28T10:31:13.534Z,9.711526
2022-08-28T10:32:13.494Z,9.711551
2022-08-28T10:33:13.487Z,9.711791
2022-08-28T10:34:13.477Z,9.711780
2022-08-28T10:35:13.478Z,9.711728
2022-08-28T10:36:26.460Z,9.711724
2022-08-28T10:37:14.455Z,9.711742
2022-08-28T10:38:13.646Z,9.711728
2022-08-28T10:39:13.444Z,9.711804
2022-08-28T10:40:13.461Z,9.711770
2022-08-28T10:41:13.430Z,9.711765
2022-08-28T10:42:13.420Z,9.711913
2022-08-28T10:43:13.414Z,9.711892
2022-08-28T10:44:13.411Z,9.711790
2022-08-28T10:45:13.394Z,9.711742
2022-08-28T10:46:13.473Z,9.711699
2022-08-28T10:47:13.379Z,9.711704
2022-08-28T10:48:14.375Z,9.711749
2022-08-28T10:49:13.393Z,9.711837
2022-08-28T10:50:13.349Z,9.711843
2022-08-28T10:51:13.354Z,9.711849
2022-08-28T10:52:13.343Z,9.711789
2022-08-28T10:53:13.322Z,9.711761
2022-08-28T10:54:13.999Z,9.711721
2022-08-28T10:55:13.309Z,9.711773
2022-08-28T10:56:13.300Z,9.711743
2022-08-28T10:57:13.920Z,9.711789
2022-08-28T10:58:24.127Z,9.711790
2022-08-28T10:59:14.275Z,9.711790
2022-08-28T11:00:13.269Z,9.711844
2022-08-28T11:01:13.344Z,9.711823
2022-08-28T11:02:13.316Z,9.711797
2022-08-28T11:03:32.915Z,9.711761
2022-08-28T11:04:15.242Z,9.711729
2022-08-28T11:05:13.254Z,9.711783
2022-08-28T11:06:13.223Z,9.711741
2022-08-28T11:07:13.216Z,9.711692
2022-08-28T11:08:13.410Z,9.711779
2022-08-28T11:09:13.196Z,9.711660
2022-08-28T11:10:13.183Z,9.711775
2022-08-28T11:11:13.207Z,9.711714
2022-08-28T11:12:13.177Z,9.711696
2022-08-28T11:13:13.380Z,9.711808
2022-08-28T11:14:13.160Z,9.711777
2022-08-28T11:15:13.166Z,9.711793
2022-08-28T11:16:13.143Z,9.711683
2022-08-28T11:17:14.372Z,9.711736
2022-08-28T11:18:13.125Z,9.711789
2022-08-28T11:19:13.116Z,9.711781
2022-08-28T11:20:13.113Z,9.711815
2022-08-28T11:21:13.108Z,9.711978
2022-08-28T11:22:13.094Z,9.711785
2022-08-28T11:23:13.323Z,9.711789
2022-08-28T11:24:13.081Z,9.711888
2022-08-28T11:25:13.078Z,9.711769
2022-08-28T11:26:13.064Z,9.711909
2022-08-28T11:27:13.068Z,9.712144
2022-08-28T11:28:13.051Z,9.711925
2022-08-28T11:29:13.025Z,9.711939
2022-08-28T11:30:14.038Z,9.711937
2022-08-28T11:31:24.657Z,9.711747
2022-08-28T11:32:14.011Z,9.711860
2022-08-28T11:33:13.223Z,9.711952
2022-08-28T11:34:12.997Z,9.711931
2022-08-28T11:35:12.994Z,9.711967
2022-08-28T11:36:12.981Z,9.711843
2022-08-28T11:37:12.982Z,9.711890
2022-08-28T11:38:14.165Z,9.711905
2022-08-28T11:39:13.522Z,9.712008
2022-08-28T11:40:13.013Z,9.711868
2022-08-28T11:41:12.972Z,9.711631
2022-08-28T11:42:12.946Z,9.711852
2022-08-28T11:43:13.066Z,9.712020
2022-08-28T11:44:12.931Z,9.712064
2022-08-28T11:45:12.916Z,9.712008
2022-08-28T11:46:13.078Z,9.711975
2022-08-28T11:47:12.902Z,9.711843
2022-08-28T11:48:12.888Z,9.712003
2022-08-28T11:49:12.883Z,9.711981
2022-08-28T11:50:12.872Z,9.712278
2022-08-28T11:51:12.878Z,9.712265
2022-08-28T11:52:12.867Z,9.712506
2022-08-28T11:53:12.964Z,9.712501
2022-08-28T11:54:12.847Z,9.712304
2022-08-28T11:55:12.838Z,9.712130
2022-08-28T11:56:12.832Z,9.712007
2022-08-28T11:57:12.817Z,9.712033
2022-08-28T12:14:58.531Z,9.710280
2022-08-28T12:15:58.578Z,9.710655
2022-08-28T12:16:58.517Z,9.711260
2022-08-28T12:17:58.500Z,9.711441
2022-08-28T12:18:58.497Z,9.711527
2022-08-28T12:19:59.487Z,9.711502
2022-08-28T12:20:58.481Z,9.711482
2022-08-28T12:21:59.423Z,9.711500
2022-08-28T12:22:58.473Z,9.711396
2022-08-28T12:23:59.217Z,9.711515
2022-08-28T12:24:59.452Z,9.711602
2022-08-28T12:25:58.440Z,9.711646
2022-08-28T12:26:58.448Z,9.711505
2022-08-28T12:27:58.437Z,9.711452
2022-08-28T12:28:58.426Z,9.711449
2022-08-28T12:29:58.420Z,9.711454
2022-08-28T12:30:58.516Z,9.711420
2022-08-28T12:31:58.410Z,9.711495
2022-08-28T12:32:58.392Z,9.711568
2022-08-28T12:33:58.386Z,9.711654
2022-08-28T12:34:58.374Z,9.711629